Hauptseite
METAR-TAF:

METAR-TAF

Flughäfen :

Scampton, England

RAF Scampton

Breite: 53-18-27N, Länge: 000-33-03W, Höhe: 62 m

Beobachtung

Neuester Wetterbericht von vor 35 Minuten, um 00:50 UTC
Wind 6 kt aus Ost
Temperatur 1°C
Luftfeuchtigkeit 86%
Luftdruck 1028 hPa
Sichtweite 10 km oder mehr

METAR: EGXP 250050Z AUTO 09006KT 9999 // BKN023/// 01/M01 Q1028

Zeit: 01:25 (01:25 UTC)


TAF: fehlend

Wetterbeobachtungen und Prognosen von mehr als 4000 Flughäfen (METAR und TAF Bericht).

Die verfügbaren Stationen werden durch gelbe und rote Markierungen auf der Karte dargestellt.

Führen Sie die Maus auf sie, um den Namen der Station zu sehen.

Darauf klicken, um die Beobachtung von Wetterbeobachtungen und Prognosen zu sehen.

Um die Karte zu ändern : klicken Sie auf den grünen Tasten mit einem schwarzen Kreuz Zum Vergrößern, auf den grünen Button mit einem Gedankenstrich zu verkleinern, oder auf die grünen Pfeile für benachbarte Karten.


METAR-TAF: